sensor_id;sensor_type;location;lat;lon;timestamp;pressure;altitude;pressure_sealevel;temperature;humidity
42621;BME280;28252;53.336;-6.298;2023-04-27T00:00:05;101017.88;;;19.54;100.00
42621;BME280;28252;53.336;-6.298;2023-04-27T00:00:41;101021.59;;;19.53;100.00
42621;BME280;28252;53.336;-6.298;2023-04-27T00:01:17;101015.34;;;19.53;100.00
42621;BME280;28252;53.336;-6.298;2023-04-27T00:01:54;101021.59;;;19.53;100.00
42621;BME280;28252;53.336;-6.298;2023-04-27T00:02:31;101014.50;;;19.52;100.00
42621;BME280;28252;53.336;-6.298;2023-04-27T00:03:04;101021.59;;;19.53;100.00
42621;BME280;28252;53.336;-6.298;2023-04-27T00:03:38;101018.91;;;19.53;100.00
42621;BME280;28252;53.336;-6.298;2023-04-27T00:04:12;101030.72;;;19.52;100.00
42621;BME280;28252;53.336;-6.298;2023-04-27T00:04:47;101019.06;;;19.52;100.00
42621;BME280;28252;53.336;-6.298;2023-04-27T00:05:24;101017.19;;;19.52;100.00
42621;BME280;28252;53.336;-6.298;2023-04-27T00:05:56;101024.47;;;19.52;100.00
42621;BME280;28252;53.336;-6.298;2023-04-27T00:06:29;101019.91;;;19.52;100.00
42621;BME280;28252;53.336;-6.298;2023-04-27T00:07:08;101019.91;;;19.52;100.00
42621;BME280;28252;53.336;-6.298;2023-04-27T00:07:44;101024.47;;;19.52;100.00
42621;BME280;28252;53.336;-6.298;2023-04-27T00:08:15;101023.63;;;19.51;100.00
42621;BME280;28252;53.336;-6.298;2023-04-27T00:08:48;101019.06;;;19.52;100.00
42621;BME280;28252;53.336;-6.298;2023-04-27T00:09:24;101018.22;;;19.51;100.00
42621;BME280;28252;53.336;-6.298;2023-04-27T00:09:56;101026.31;;;19.51;100.00
42621;BME280;28252;53.336;-6.298;2023-04-27T00:10:31;101025.31;;;19.52;100.00
42621;BME280;28252;53.336;-6.298;2023-04-27T00:11:05;101017.34;;;19.51;100.00
42621;BME280;28252;53.336;-6.298;2023-04-27T00:11:38;101018.22;;;19.51;100.00
42621;BME280;28252;53.336;-6.298;2023-04-27T00:12:14;101018.22;;;19.51;100.00
42621;BME280;28252;53.336;-6.298;2023-04-27T00:12:45;101016.50;;;19.50;100.00
42621;BME280;28252;53.336;-6.298;2023-04-27T00:13:19;101024.63;;;19.50;100.00
42621;BME280;28252;53.336;-6.298;2023-04-27T00:13:50;101020.22;;;19.49;100.00
42621;BME280;28252;53.336;-6.298;2023-04-27T00:14:27;101012.09;;;19.49;100.00
42621;BME280;28252;53.336;-6.298;2023-04-27T00:15:01;101010.44;;;19.48;100.00
42621;BME280;28252;53.336;-6.298;2023-04-27T00:15:34;101014.81;;;19.49;100.00
42621;BME280;28252;53.336;-6.298;2023-04-27T00:16:05;101009.41;;;19.49;100.00
42621;BME280;28252;53.336;-6.298;2023-04-27T00:16:38;101013.13;;;19.48;100.00
42621;BME280;28252;53.336;-6.298;2023-04-27T00:17:11;101013.13;;;19.48;100.00
42621;BME280;28252;53.336;-6.298;2023-04-27T00:17:44;101008.56;;;19.49;100.00
42621;BME280;28252;53.336;-6.298;2023-04-27T00:18:18;101013.13;;;19.48;100.00
42621;BME280;28252;53.336;-6.298;2023-04-27T00:18:53;101011.41;;;19.47;100.00
42621;BME280;28252;53.336;-6.298;2023-04-27T00:19:35;101009.41;;;19.49;100.00
42621;BME280;28252;53.336;-6.298;2023-04-27T00:20:08;101013.13;;;19.48;100.00
42621;BME280;28252;53.336;-6.298;2023-04-27T00:20:43;101008.72;;;19.47;100.00
42621;BME280;28252;53.336;-6.298;2023-04-27T00:21:16;101006.00;;;19.47;100.00
42621;BME280;28252;53.336;-6.298;2023-04-27T00:21:50;101011.41;;;19.47;100.00
42621;BME280;28252;53.336;-6.298;2023-04-27T00:22:23;101008.72;;;19.47;100.00
42621;BME280;28252;53.336;-6.298;2023-04-27T00:22:55;101011.41;;;19.47;100.00
42621;BME280;28252;53.336;-6.298;2023-04-27T00:23:31;101011.41;;;19.47;100.00
42621;BME280;28252;53.336;-6.298;2023-04-27T00:24:04;101009.75;;;19.46;100.00
42621;BME280;28252;53.336;-6.298;2023-04-27T00:24:38;101010.75;;;19.45;100.00
42621;BME280;28252;53.336;-6.298;2023-04-27T00:25:11;101013.44;;;19.45;100.00
42621;BME280;28252;53.336;-6.298;2023-04-27T00:25:44;101007.03;;;19.46;100.00
42621;BME280;28252;53.336;-6.298;2023-04-27T00:26:17;101011.72;;;19.44;100.00
42621;BME280;28252;53.336;-6.298;2023-04-27T00:26:53;101007.19;;;19.45;100.00
42621;BME280;28252;53.336;-6.298;2023-04-27T00:27:29;101009.91;;;19.45;100.00
42621;BME280;28252;53.336;-6.298;2023-04-27T00:28:00;101011.72;;;19.44;100.00
42621;BME280;28252;53.336;-6.298;2023-04-27T00:28:33;101006.31;;;19.44;100.00
42621;BME280;28252;53.336;-6.298;2023-04-27T00:29:07;101010.88;;;19.44;100.00
42621;BME280;28252;53.336;-6.298;2023-04-27T00:31:03;101004.66;;;19.43;100.00
42621;BME280;28252;53.336;-6.298;2023-04-27T00:31:37;101010.06;;;19.43;100.00
42621;BME280;28252;53.336;-6.298;2023-04-27T00:32:10;101011.03;;;19.42;100.00
42621;BME280;28252;53.336;-6.298;2023-04-27T00:32:48;101007.34;;;19.43;100.00
42621;BME280;28252;53.336;-6.298;2023-04-27T00:33:20;101009.38;;;19.41;100.00
42621;BME280;28252;53.336;-6.298;2023-04-27T00:33:54;101006.66;;;19.41;100.00
42621;BME280;28252;53.336;-6.298;2023-04-27T00:34:25;101012.06;;;19.41;100.00
42621;BME280;28252;53.336;-6.298;2023-04-27T00:35:00;101003.97;;;19.41;100.00
42621;BME280;28252;53.336;-6.298;2023-04-27T00:35:38;101011.19;;;19.40;100.00
42621;BME280;28252;53.336;-6.298;2023-04-27T00:36:12;101008.66;;;19.39;100.00
42621;BME280;28252;53.336;-6.298;2023-04-27T00:36:45;101004.97;;;19.40;100.00
42621;BME280;28252;53.336;-6.298;2023-04-27T00:37:21;101005.78;;;19.40;100.00
42621;BME280;28252;53.336;-6.298;2023-04-27T00:37:59;101004.97;;;19.40;100.00
42621;BME280;28252;53.336;-6.298;2023-04-27T00:38:33;101010.38;;;19.40;100.00
42621;BME280;28252;53.336;-6.298;2023-04-27T00:39:04;101011.34;;;19.39;100.00
42621;BME280;28252;53.336;-6.298;2023-04-27T00:39:36;101003.25;;;19.39;100.00
42621;BME280;28252;53.336;-6.298;2023-04-27T00:40:11;101008.66;;;19.39;100.00
42621;BME280;28252;53.336;-6.298;2023-04-27T00:40:45;101002.41;;;19.38;100.00
42621;BME280;28252;53.336;-6.298;2023-04-27T00:41:21;101005.94;;;19.39;100.00
42621;BME280;28252;53.336;-6.298;2023-04-27T00:41:55;101006.97;;;19.38;100.00
42621;BME280;28252;53.336;-6.298;2023-04-27T00:42:29;101005.25;;;19.37;100.00
42621;BME280;28252;53.336;-6.298;2023-04-27T00:43:04;101006.97;;;19.38;100.00
42621;BME280;28252;53.336;-6.298;2023-04-27T00:43:44;101001.56;;;19.38;100.00
42621;BME280;28252;53.336;-6.298;2023-04-27T00:44:22;100998.88;;;19.38;100.00
42621;BME280;28252;53.336;-6.298;2023-04-27T00:44:57;100998.00;;;19.37;100.00
42621;BME280;28252;53.336;-6.298;2023-04-27T00:45:28;100995.31;;;19.37;100.00
42621;BME280;28252;53.336;-6.298;2023-04-27T00:46:02;100994.47;;;19.37;100.00
42621;BME280;28252;53.336;-6.298;2023-04-27T00:46:33;100999.88;;;19.37;100.00
42621;BME280;28252;53.336;-6.298;2023-04-27T00:47:06;100991.75;;;19.37;100.00
42621;BME280;28252;53.336;-6.298;2023-04-27T00:47:37;100993.63;;;19.36;100.00
42621;BME280;28252;53.336;-6.298;2023-04-27T00:48:15;100995.31;;;19.37;100.00
42621;BME280;28252;53.336;-6.298;2023-04-27T00:48:47;100992.78;;;19.36;100.00
42621;BME280;28252;53.336;-6.298;2023-04-27T00:49:23;100981.97;;;19.36;100.00
42621;BME280;28252;53.336;-6.298;2023-04-27T00:49:55;100978.25;;;19.37;100.00
42621;BME280;28252;53.336;-6.298;2023-04-27T00:50:29;100981.13;;;19.35;100.00
42621;BME280;28252;53.336;-6.298;2023-04-27T00:51:00;100982.13;;;19.34;100.00
42621;BME280;28252;53.336;-6.298;2023-04-27T00:51:36;100981.97;;;19.36;100.00
42621;BME280;28252;53.336;-6.298;2023-04-27T00:52:11;100976.59;;;19.36;100.00
42621;BME280;28252;53.336;-6.298;2023-04-27T00:52:42;100969.47;;;19.35;100.00
42621;BME280;28252;53.336;-6.298;2023-04-27T00:53:18;100970.31;;;19.35;100.00
42621;BME280;28252;53.336;-6.298;2023-04-27T00:53:53;100969.47;;;19.35;100.00
42621;BME280;28252;53.336;-6.298;2023-04-27T00:54:27;100967.75;;;19.34;100.00
42621;BME280;28252;53.336;-6.298;2023-04-27T00:54:59;100967.75;;;19.34;100.00
42621;BME280;28252;53.336;-6.298;2023-04-27T00:55:37;100966.94;;;19.33;100.00
42621;BME280;28252;53.336;-6.298;2023-04-27T00:56:13;100963.22;;;19.34;100.00
42621;BME280;28252;53.336;-6.298;2023-04-27T00:56:51;100964.06;;;19.35;100.00
42621;BME280;28252;53.336;-6.298;2023-04-27T00:57:28;100962.38;;;19.34;100.00
42621;BME280;28252;53.336;-6.298;2023-04-27T00:58:02;100964.22;;;19.33;100.00
42621;BME280;28252;53.336;-6.298;2023-04-27T00:58:39;100967.75;;;19.34;100.00
42621;BME280;28252;53.336;-6.298;2023-04-27T00:59:16;100964.22;;;19.33;100.00
42621;BME280;28252;53.336;-6.298;2023-04-27T00:59:51;100967.91;;;19.32;100.00
42621;BME280;28252;53.336;-6.298;2023-04-27T01:01:15;100960.69;;;19.33;100.00
42621;BME280;28252;53.336;-6.298;2023-04-27T01:01:48;100952.75;;;19.31;100.00
42621;BME280;28252;53.336;-6.298;2023-04-27T01:02:23;100957.31;;;19.31;100.00
42621;BME280;28252;53.336;-6.298;2023-04-27T01:02:56;100957.31;;;19.31;100.00
42621;BME280;28252;53.336;-6.298;2023-04-27T01:03:29;100952.75;;;19.31;100.00
42621;BME280;28252;53.336;-6.298;2023-04-27T01:04:04;100947.50;;;19.30;100.00
42621;BME280;28252;53.336;-6.298;2023-04-27T01:04:35;100951.03;;;19.30;100.00
42621;BME280;28252;53.336;-6.298;2023-04-27T01:05:08;100944.78;;;19.30;100.00
42621;BME280;28252;53.336;-6.298;2023-04-27T01:05:44;100947.66;;;19.28;100.00
42621;BME280;28252;53.336;-6.298;2023-04-27T01:06:22;100948.50;;;19.29;100.00
42621;BME280;28252;53.336;-6.298;2023-04-27T01:07:00;100947.50;;;19.30;100.00
42621;BME280;28252;53.336;-6.298;2023-04-27T01:07:36;100949.34;;;19.29;100.00
42621;BME280;28252;53.336;-6.298;2023-04-27T01:08:09;100950.19;;;19.30;100.00
42621;BME280;28252;53.336;-6.298;2023-04-27T01:08:45;100943.97;;;19.29;100.00
42621;BME280;28252;53.336;-6.298;2023-04-27T01:09:19;100942.25;;;19.28;100.00
42621;BME280;28252;53.336;-6.298;2023-04-27T01:09:54;100948.50;;;19.29;100.00
42621;BME280;28252;53.336;-6.298;2023-04-27T01:10:27;100951.19;;;19.29;100.00
42621;BME280;28252;53.336;-6.298;2023-04-27T01:11:00;100950.34;;;19.28;100.00
42621;BME280;28252;53.336;-6.298;2023-04-27T01:11:33;100947.81;;;19.27;100.00
42621;BME280;28252;53.336;-6.298;2023-04-27T01:12:06;100943.25;;;19.27;100.00
42621;BME280;28252;53.336;-6.298;2023-04-27T01:12:40;100942.41;;;19.27;100.00
42621;BME280;28252;53.336;-6.298;2023-04-27T01:13:14;100949.66;;;19.26;100.00
42621;BME280;28252;53.336;-6.298;2023-04-27T01:13:47;100948.63;;;19.27;100.00
42621;BME280;28252;53.336;-6.298;2023-04-27T01:14:20;100946.09;;;19.26;100.00
42621;BME280;28252;53.336;-6.298;2023-04-27T01:14:52;100943.41;;;19.26;100.00
42621;BME280;28252;53.336;-6.298;2023-04-27T01:15:25;100945.09;;;19.27;100.00
42621;BME280;28252;53.336;-6.298;2023-04-27T01:16:00;100948.78;;;19.26;100.00
42621;BME280;28252;53.336;-6.298;2023-04-27T01:16:34;100943.41;;;19.26;100.00
42621;BME280;28252;53.336;-6.298;2023-04-27T01:17:10;100940.00;;;19.23;100.00
42621;BME280;28252;53.336;-6.298;2023-04-27T01:17:42;100943.41;;;19.26;100.00
42621;BME280;28252;53.336;-6.298;2023-04-27T01:18:13;100936.31;;;19.25;100.00
42621;BME280;28252;53.336;-6.298;2023-04-27T01:18:48;100938.19;;;19.24;100.00
42621;BME280;28252;53.336;-6.298;2023-04-27T01:19:24;100941.72;;;19.25;100.00
42621;BME280;28252;53.336;-6.298;2023-04-27T01:20:02;100941.72;;;19.25;100.00
42621;BME280;28252;53.336;-6.298;2023-04-27T01:20:39;100937.31;;;19.23;100.00
42621;BME280;28252;53.336;-6.298;2023-04-27T01:21:15;100930.91;;;19.25;100.00
42621;BME280;28252;53.336;-6.298;2023-04-27T01:21:51;100940.00;;;19.23;100.00
42621;BME280;28252;53.336;-6.298;2023-04-27T01:22:22;100933.78;;;19.23;100.00
42621;BME280;28252;53.336;-6.298;2023-04-27T01:22:55;100932.94;;;19.22;100.00
42621;BME280;28252;53.336;-6.298;2023-04-27T01:23:26;100928.38;;;19.23;100.00
42621;BME280;28252;53.336;-6.298;2023-04-27T01:24:00;100927.53;;;19.22;100.00
42621;BME280;28252;53.336;-6.298;2023-04-27T01:24:31;100932.94;;;19.22;100.00
42621;BME280;28252;53.336;-6.298;2023-04-27T01:25:07;100922.13;;;19.22;100.00
42621;BME280;28252;53.336;-6.298;2023-04-27T01:25:41;100927.53;;;19.22;100.00
42621;BME280;28252;53.336;-6.298;2023-04-27T01:26:14;100927.53;;;19.22;100.00
42621;BME280;28252;53.336;-6.298;2023-04-27T01:26:48;100924.84;;;19.22;100.00
42621;BME280;28252;53.336;-6.298;2023-04-27T01:27:26;100915.03;;;19.21;100.00
42621;BME280;28252;53.336;-6.298;2023-04-27T01:28:01;100921.41;;;19.20;100.00
42621;BME280;28252;53.336;-6.298;2023-04-27T01:28:35;100918.72;;;19.20;100.00
42621;BME280;28252;53.336;-6.298;2023-04-27T01:29:50;100918.72;;;19.20;100.00
42621;BME280;28252;53.336;-6.298;2023-04-27T01:30:25;100915.19;;;19.20;100.00
42621;BME280;28252;53.336;-6.298;2023-04-27T01:31:00;100917.03;;;19.19;100.00
42621;BME280;28252;53.336;-6.298;2023-04-27T01:31:36;100915.34;;;19.18;100.00
42621;BME280;28252;53.336;-6.298;2023-04-27T01:32:10;100911.66;;;19.19;100.00
42621;BME280;28252;53.336;-6.298;2023-04-27T01:32:47;100913.50;;;19.19;100.00
42621;BME280;28252;53.336;-6.298;2023-04-27T01:33:20;100907.25;;;19.18;100.00
42621;BME280;28252;53.336;-6.298;2023-04-27T01:33:52;100904.53;;;19.18;100.00
42621;BME280;28252;53.336;-6.298;2023-04-27T01:34:27;100910.97;;;19.17;100.00
42621;BME280;28252;53.336;-6.298;2023-04-27T01:35:06;100907.25;;;19.18;100.00
42621;BME280;28252;53.336;-6.298;2023-04-27T01:35:37;100905.56;;;19.17;100.00
42621;BME280;28252;53.336;-6.298;2023-04-27T01:36:12;100909.94;;;19.18;100.00
42621;BME280;28252;53.336;-6.298;2023-04-27T01:36:48;100902.00;;;19.17;100.00
42621;BME280;28252;53.336;-6.298;2023-04-27T01:37:21;100908.25;;;19.17;100.00
42621;BME280;28252;53.336;-6.298;2023-04-27T01:37:56;100908.25;;;19.17;100.00
42621;BME280;28252;53.336;-6.298;2023-04-27T01:38:32;100899.28;;;19.17;100.00
42621;BME280;28252;53.336;-6.298;2023-04-27T01:39:06;100898.47;;;19.16;100.00
42621;BME280;28252;53.336;-6.298;2023-04-27T01:39:41;100900.31;;;19.16;100.00
42621;BME280;28252;53.336;-6.298;2023-04-27T01:40:14;100897.63;;;19.16;100.00
42621;BME280;28252;53.336;-6.298;2023-04-27T01:40:51;100899.44;;;19.15;100.00
42621;BME280;28252;53.336;-6.298;2023-04-27T01:41:25;100901.16;;;19.16;100.00
42621;BME280;28252;53.336;-6.298;2023-04-27T01:42:00;100896.75;;;19.15;100.00
42621;BME280;28252;53.336;-6.298;2023-04-27T01:42:33;100899.44;;;19.15;100.00
42621;BME280;28252;53.336;-6.298;2023-04-27T01:43:09;100894.91;;;19.16;100.00
42621;BME280;28252;53.336;-6.298;2023-04-27T01:43:43;100894.91;;;19.16;100.00
42621;BME280;28252;53.336;-6.298;2023-04-27T01:44:14;100888.66;;;19.15;100.00
42621;BME280;28252;53.336;-6.298;2023-04-27T01:44:48;100885.94;;;19.15;100.00
42621;BME280;28252;53.336;-6.298;2023-04-27T01:45:19;100892.38;;;19.14;100.00
42621;BME280;28252;53.336;-6.298;2023-04-27T01:49:23;100881.56;;;19.14;100.00
42621;BME280;28252;53.336;-6.298;2023-04-27T01:49:56;100874.47;;;19.13;100.00
42621;BME280;28252;53.336;-6.298;2023-04-27T01:50:29;100869.06;;;19.13;100.00
42621;BME280;28252;53.336;-6.298;2023-04-27T01:51:00;100872.78;;;19.12;100.00
42621;BME280;28252;53.336;-6.298;2023-04-27T01:51:32;100869.06;;;19.13;100.00
42621;BME280;28252;53.336;-6.298;2023-04-27T01:52:05;100876.19;;;19.14;100.00
42621;BME280;28252;53.336;-6.298;2023-04-27T01:52:37;100869.22;;;19.12;100.00
42621;BME280;28252;53.336;-6.298;2023-04-27T01:53:10;100869.22;;;19.12;100.00
42621;BME280;28252;53.336;-6.298;2023-04-27T01:53:48;100879.88;;;19.13;100.00
42621;BME280;28252;53.336;-6.298;2023-04-27T01:54:22;100865.69;;;19.11;100.00
42621;BME280;28252;53.336;-6.298;2023-04-27T01:54:53;100865.53;;;19.13;100.00
42621;BME280;28252;53.336;-6.298;2023-04-27T01:55:28;100863.81;;;19.12;100.00
42621;BME280;28252;53.336;-6.298;2023-04-27T01:55:59;100863.81;;;19.12;100.00
42621;BME280;28252;53.336;-6.298;2023-04-27T01:56:33;100863.00;;;19.11;100.00
42621;BME280;28252;53.336;-6.298;2023-04-27T01:57:09;100858.59;;;19.10;100.00
42621;BME280;28252;53.336;-6.298;2023-04-27T01:57:46;100863.00;;;19.11;100.00
42621;BME280;28252;53.336;-6.298;2023-04-27T01:58:22;100863.97;;;19.10;100.00
42621;BME280;28252;53.336;-6.298;2023-04-27T01:58:56;100864.84;;;19.11;100.00
42621;BME280;28252;53.336;-6.298;2023-04-27T01:59:30;100868.38;;;19.11;100.00
42621;BME280;28252;53.336;-6.298;2023-04-27T02:00:01;100869.38;;;19.10;100.00
42621;BME280;28252;53.336;-6.298;2023-04-27T02:00:55;100872.94;;;19.11;100.00
42621;BME280;28252;53.336;-6.298;2023-04-27T02:01:31;100869.38;;;19.10;100.00
42621;BME280;28252;53.336;-6.298;2023-04-27T02:02:04;100867.69;;;19.09;100.00
42621;BME280;28252;53.336;-6.298;2023-04-27T02:02:40;100868.53;;;19.10;100.00
42621;BME280;28252;53.336;-6.298;2023-04-27T02:03:16;100867.69;;;19.09;100.00
42621;BME280;28252;53.336;-6.298;2023-04-27T02:03:51;100862.31;;;19.09;100.00
42621;BME280;28252;53.336;-6.298;2023-04-27T02:04:27;100863.97;;;19.10;100.00
42621;BME280;28252;53.336;-6.298;2023-04-27T02:05:03;100863.16;;;19.10;100.00
42621;BME280;28252;53.336;-6.298;2023-04-27T02:05:34;100862.31;;;19.09;100.00
42621;BME280;28252;53.336;-6.298;2023-04-27T02:06:07;100873.09;;;19.09;100.00
42621;BME280;28252;53.336;-6.298;2023-04-27T02:06:39;100866.88;;;19.09;100.00
42621;BME280;28252;53.336;-6.298;2023-04-27T02:07:13;100862.47;;;19.08;100.00
42621;BME280;28252;53.336;-6.298;2023-04-27T02:07:48;100860.59;;;19.08;100.00
42621;BME280;28252;53.336;-6.298;2023-04-27T02:08:19;100868.69;;;19.08;100.00
42621;BME280;28252;53.336;-6.298;2023-04-27T02:08:57;100869.72;;;19.07;100.00
42621;BME280;28252;53.336;-6.298;2023-04-27T02:09:33;100869.72;;;19.07;100.00
42621;BME280;28252;53.336;-6.298;2023-04-27T02:10:08;100865.16;;;19.08;100.00
42621;BME280;28252;53.336;-6.298;2023-04-27T02:10:39;100876.78;;;19.08;100.00
42621;BME280;28252;53.336;-6.298;2023-04-27T02:11:13;100870.56;;;19.08;100.00
42621;BME280;28252;53.336;-6.298;2023-04-27T02:11:44;100869.72;;;19.07;100.00
42621;BME280;28252;53.336;-6.298;2023-04-27T02:12:15;100872.41;;;19.07;100.00
42621;BME280;28252;53.336;-6.298;2023-04-27T02:12:52;100872.41;;;19.07;100.00
42621;BME280;28252;53.336;-6.298;2023-04-27T02:13:26;100868.00;;;19.06;100.00
42621;BME280;28252;53.336;-6.298;2023-04-27T02:14:01;100871.72;;;19.05;100.00
42621;BME280;28252;53.336;-6.298;2023-04-27T02:14:38;100874.25;;;19.07;100.00
42621;BME280;28252;53.336;-6.298;2023-04-27T02:15:10;100868.00;;;19.06;100.00
42621;BME280;28252;53.336;-6.298;2023-04-27T02:15:43;100878.81;;;19.06;100.00
42621;BME280;28252;53.336;-6.298;2023-04-27T02:16:21;100874.41;;;19.05;100.00
42621;BME280;28252;53.336;-6.298;2023-04-27T02:16:57;100869.00;;;19.05;100.00
42621;BME280;28252;53.336;-6.298;2023-04-27T02:17:35;100872.56;;;19.06;100.00
42621;BME280;28252;53.336;-6.298;2023-04-27T02:18:10;100869.00;;;19.05;100.00
42621;BME280;28252;53.336;-6.298;2023-04-27T02:18:41;100866.31;;;19.05;100.00
42621;BME280;28252;53.336;-6.298;2023-04-27T02:19:16;100876.28;;;19.04;100.00
42621;BME280;28252;53.336;-6.298;2023-04-27T02:19:52;100870.03;;;19.04;100.00
42621;BME280;28252;53.336;-6.298;2023-04-27T02:20:25;100864.63;;;19.04;100.00
42621;BME280;28252;53.336;-6.298;2023-04-27T02:20:59;100865.47;;;19.04;100.00
42621;BME280;28252;53.336;-6.298;2023-04-27T02:21:38;100864.63;;;19.04;100.00
42621;BME280;28252;53.336;-6.298;2023-04-27T02:22:09;100861.94;;;19.04;100.00
42621;BME280;28252;53.336;-6.298;2023-04-27T02:22:42;100863.78;;;19.03;100.00
42621;BME280;28252;53.336;-6.298;2023-04-27T02:23:20;100859.25;;;19.04;100.00
42621;BME280;28252;53.336;-6.298;2023-04-27T02:23:55;100854.97;;;19.01;100.00
42621;BME280;28252;53.336;-6.298;2023-04-27T02:24:31;100858.56;;;19.02;100.00
42621;BME280;28252;53.336;-6.298;2023-04-27T02:25:05;100851.28;;;19.02;100.00
42621;BME280;28252;53.336;-6.298;2023-04-27T02:25:40;100853.16;;;19.02;100.00
42621;BME280;28252;53.336;-6.298;2023-04-27T02:26:16;100857.53;;;19.03;100.00
42621;BME280;28252;53.336;-6.298;2023-04-27T02:26:52;100860.38;;;19.01;100.00
42621;BME280;28252;53.336;-6.298;2023-04-27T02:27:31;100853.16;;;19.02;100.00
42621;BME280;28252;53.336;-6.298;2023-04-27T02:28:04;100854.97;;;19.01;100.00
42621;BME280;28252;53.336;-6.298;2023-04-27T02:28:38;100851.44;;;19.01;100.00
42621;BME280;28252;53.336;-6.298;2023-04-27T02:29:13;100856.84;;;19.01;100.00
42621;BME280;28252;53.336;-6.298;2023-04-27T02:29:44;100850.59;;;19.00;100.00
42621;BME280;28252;53.336;-6.298;2023-04-27T02:30:15;100847.03;;;19.00;100.00
42621;BME280;28252;53.336;-6.298;2023-04-27T02:30:52;100853.31;;;19.00;100.00
42621;BME280;28252;53.336;-6.298;2023-04-27T02:31:25;100852.44;;;19.00;100.00
42621;BME280;28252;53.336;-6.298;2023-04-27T02:31:59;100852.44;;;19.00;100.00
42621;BME280;28252;53.336;-6.298;2023-04-27T02:32:32;100849.75;;;19.00;100.00
42621;BME280;28252;53.336;-6.298;2023-04-27T02:33:08;100850.75;;;18.99;100.00
42621;BME280;28252;53.336;-6.298;2023-04-27T02:33:42;100855.13;;;19.00;100.00
42621;BME280;28252;53.336;-6.298;2023-04-27T02:34:13;100851.59;;;18.99;100.00
42621;BME280;28252;53.336;-6.298;2023-04-27T02:34:46;100854.31;;;18.99;100.00
42621;BME280;28252;53.336;-6.298;2023-04-27T02:35:24;100857.00;;;18.99;100.00
42621;BME280;28252;53.336;-6.298;2023-04-27T02:36:05;100845.38;;;18.99;100.00
42621;BME280;28252;53.336;-6.298;2023-04-27T02:36:41;100848.06;;;18.99;100.00
42621;BME280;28252;53.336;-6.298;2023-04-27T02:37:14;100849.75;;;19.00;100.00
42621;BME280;28252;53.336;-6.298;2023-04-27T02:37:50;100851.59;;;18.99;100.00
42621;BME280;28252;53.336;-6.298;2023-04-27T02:38:25;100848.06;;;18.99;100.00
42621;BME280;28252;53.336;-6.298;2023-04-27T02:38:56;100845.38;;;18.99;100.00
42621;BME280;28252;53.336;-6.298;2023-04-27T02:39:29;100846.22;;;18.99;100.00
42621;BME280;28252;53.336;-6.298;2023-04-27T02:40:00;100842.66;;;18.99;100.00
42621;BME280;28252;53.336;-6.298;2023-04-27T02:40:35;100844.50;;;18.98;100.00
42621;BME280;28252;53.336;-6.298;2023-04-27T02:41:08;100844.50;;;18.98;100.00
42621;BME280;28252;53.336;-6.298;2023-04-27T02:41:42;100840.13;;;18.97;100.00
42621;BME280;28252;53.336;-6.298;2023-04-27T02:42:15;100840.97;;;18.98;100.00
42621;BME280;28252;53.336;-6.298;2023-04-27T02:42:50;100840.97;;;18.98;100.00
42621;BME280;28252;53.336;-6.298;2023-04-27T02:43:23;100838.25;;;18.98;100.00
42621;BME280;28252;53.336;-6.298;2023-04-27T02:44:00;100837.59;;;18.96;100.00
42621;BME280;28252;53.336;-6.298;2023-04-27T02:44:31;100836.59;;;18.97;100.00
42621;BME280;28252;53.336;-6.298;2023-04-27T02:45:07;100833.03;;;18.96;100.00
42621;BME280;28252;53.336;-6.298;2023-04-27T02:45:40;100828.66;;;18.95;100.00
42621;BME280;28252;53.336;-6.298;2023-04-27T02:46:13;100833.03;;;18.96;100.00
42621;BME280;28252;53.336;-6.298;2023-04-27T02:46:44;100831.34;;;18.95;100.00
42621;BME280;28252;53.336;-6.298;2023-04-27T02:47:20;100834.88;;;18.96;100.00
42621;BME280;28252;53.336;-6.298;2023-04-27T02:47:54;100821.53;;;18.94;100.00
42621;BME280;28252;53.336;-6.298;2023-04-27T02:48:27;100834.03;;;18.95;100.00
42621;BME280;28252;53.336;-6.298;2023-04-27T02:49:00;100833.19;;;18.95;100.00
42621;BME280;28252;53.336;-6.298;2023-04-27T02:49:34;100828.66;;;18.95;100.00
42621;BME280;28252;53.336;-6.298;2023-04-27T02:50:09;100831.50;;;18.94;100.00
42621;BME280;28252;53.336;-6.298;2023-04-27T02:50:42;100830.47;;;18.95;100.00
42621;BME280;28252;53.336;-6.298;2023-04-27T02:51:16;100832.34;;;18.94;100.00
42621;BME280;28252;53.336;-6.298;2023-04-27T02:51:47;100825.22;;;18.93;100.00
42621;BME280;28252;53.336;-6.298;2023-04-27T02:52:18;100831.50;;;18.94;100.00
42621;BME280;28252;53.336;-6.298;2023-04-27T02:52:49;100831.50;;;18.94;100.00
42621;BME280;28252;53.336;-6.298;2023-04-27T02:53:20;100826.94;;;18.94;100.00
42621;BME280;28252;53.336;-6.298;2023-04-27T02:53:56;100827.78;;;18.95;100.00
42621;BME280;28252;53.336;-6.298;2023-04-27T02:54:32;100830.63;;;18.93;100.00
42621;BME280;28252;53.336;-6.298;2023-04-27T02:55:03;100827.94;;;18.93;100.00
42621;BME280;28252;53.336;-6.298;2023-04-27T02:55:43;100826.09;;;18.94;100.00
42621;BME280;28252;53.336;-6.298;2023-04-27T02:56:18;100822.53;;;18.93;100.00
42621;BME280;28252;53.336;-6.298;2023-04-27T02:56:51;100821.69;;;18.93;100.00
42621;BME280;28252;53.336;-6.298;2023-04-27T02:57:27;100824.41;;;18.93;100.00
42621;BME280;28252;53.336;-6.298;2023-04-27T02:57:58;100821.03;;;18.91;100.00
42621;BME280;28252;53.336;-6.298;2023-04-27T02:58:34;100828.13;;;18.92;100.00
42621;BME280;28252;53.336;-6.298;2023-04-27T02:59:09;100821.69;;;18.93;100.00
42621;BME280;28252;53.336;-6.298;2023-04-27T02:59:48;100821.69;;;18.93;100.00
42621;BME280;28252;53.336;-6.298;2023-04-27T03:00:23;100824.41;;;18.93;100.00
42621;BME280;28252;53.336;-6.298;2023-04-27T03:00:57;100822.72;;;18.92;100.00